createdAt,value
2019-01-26T00:02:05.059Z,-4.30
2019-01-26T00:04:35.415Z,-4.20
2019-01-26T00:07:05.792Z,-4.20
2019-01-26T00:09:36.155Z,-4.20
2019-01-26T00:12:06.648Z,-4.20
2019-01-26T00:14:37.000Z,-4.20
2019-01-26T00:17:07.352Z,-4.20
2019-01-26T00:19:37.719Z,-4.20
2019-01-26T00:22:08.058Z,-4.20
2019-01-26T00:24:38.409Z,-4.20
2019-01-26T00:27:08.835Z,-4.20
2019-01-26T00:29:39.184Z,-4.20
2019-01-26T00:32:09.631Z,-4.10
2019-01-26T00:34:39.971Z,-4.20
2019-01-26T00:37:10.431Z,-4.20
2019-01-26T00:39:40.774Z,-4.20
2019-01-26T00:42:11.151Z,-4.20
2019-01-26T00:44:41.791Z,-4.20
2019-01-26T00:49:41.747Z,-4.20
2019-01-26T00:54:41.735Z,-4.10
2019-01-26T00:59:42.779Z,-4.10
2019-01-26T01:02:13.939Z,-4.10
2019-01-26T01:04:49.406Z,-4.10
2019-01-26T01:07:21.787Z,-4.00
2019-01-26T01:09:52.131Z,-4.00
2019-01-26T01:12:25.265Z,-4.00
2019-01-26T01:14:55.875Z,-4.00
2019-01-26T01:17:26.215Z,-4.00
2019-01-26T01:19:56.593Z,-4.10
2019-01-26T01:22:27.003Z,-4.00
2019-01-26T01:24:57.352Z,-4.00
2019-01-26T01:27:27.731Z,-4.00
2019-01-26T01:29:58.077Z,-4.00
2019-01-26T01:32:28.451Z,-4.00
2019-01-26T01:34:58.791Z,-4.00
2019-01-26T01:37:29.139Z,-4.10
2019-01-26T01:39:59.515Z,-4.00
2019-01-26T01:42:29.911Z,-4.00
2019-01-26T01:45:00.252Z,-4.00
2019-01-26T01:47:30.624Z,-4.00
2019-01-26T01:50:00.963Z,-4.00
2019-01-26T01:52:31.350Z,-4.00
2019-01-26T01:55:01.783Z,-4.00
2019-01-26T01:57:32.488Z,-4.10
2019-01-26T02:00:02.827Z,-4.10
2019-01-26T02:02:33.270Z,-4.00
2019-01-26T02:05:03.624Z,-4.00
2019-01-26T02:07:42.127Z,-4.00
2019-01-26T02:10:21.509Z,-4.00
2019-01-26T02:12:55.175Z,-4.10
2019-01-26T02:15:25.531Z,-4.10
2019-01-26T02:17:55.925Z,-4.00
2019-01-26T02:20:26.456Z,-4.10
2019-01-26T02:22:56.844Z,-4.10
2019-01-26T02:25:27.256Z,-4.10
2019-01-26T02:27:57.652Z,-4.10
2019-01-26T02:30:28.110Z,-4.20
2019-01-26T02:32:58.522Z,-4.20
2019-01-26T02:35:28.967Z,-4.20
2019-01-26T02:37:59.306Z,-4.20
2019-01-26T02:40:29.661Z,-4.30
2019-01-26T02:43:00.035Z,-4.30
2019-01-26T02:45:30.375Z,-4.30
2019-01-26T02:48:00.719Z,-4.20
2019-01-26T02:50:31.083Z,-4.20
2019-01-26T02:53:01.432Z,-4.20
2019-01-26T02:55:31.835Z,-4.20
2019-01-26T02:58:02.198Z,-4.20
2019-01-26T03:00:32.545Z,-4.20
2019-01-26T03:03:02.891Z,-4.20
2019-01-26T03:05:33.274Z,-4.30
2019-01-26T03:08:03.679Z,-4.30
2019-01-26T03:10:34.023Z,-4.30
2019-01-26T03:13:04.774Z,-4.30
2019-01-26T03:15:35.237Z,-4.20
2019-01-26T03:18:05.684Z,-4.20
2019-01-26T03:20:36.065Z,-4.20
2019-01-26T03:23:06.403Z,-4.10
2019-01-26T03:25:36.754Z,-4.10
2019-01-26T03:28:07.270Z,-4.00
2019-01-26T03:30:37.616Z,-4.00
2019-01-26T03:33:08.533Z,-4.00
2019-01-26T03:38:08.498Z,-4.00
2019-01-26T03:40:39.929Z,-4.00
2019-01-26T03:43:10.278Z,-4.00
2019-01-26T03:45:40.714Z,-4.00
2019-01-26T03:48:11.135Z,-4.00
2019-01-26T03:50:41.543Z,-4.10
2019-01-26T03:53:11.892Z,-4.10
2019-01-26T03:55:42.235Z,-4.00
2019-01-26T03:58:12.904Z,-4.00
2019-01-26T04:00:43.255Z,-4.00
2019-01-26T04:03:13.615Z,-4.00
2019-01-26T04:05:43.967Z,-4.00
2019-01-26T04:08:14.335Z,-4.00
2019-01-26T04:10:44.675Z,-3.90
2019-01-26T04:15:54.479Z,-3.80
2019-01-26T04:18:26.756Z,-3.80
2019-01-26T04:23:58.603Z,-3.80
2019-01-26T04:26:28.955Z,-3.70
2019-01-26T04:28:59.344Z,-3.70
2019-01-26T04:31:29.692Z,-3.70
2019-01-26T04:34:00.059Z,-3.70
2019-01-26T04:36:30.411Z,-3.80
2019-01-26T04:39:00.761Z,-3.70
2019-01-26T04:41:32.751Z,-3.80
2019-01-26T04:44:03.088Z,-3.70
2019-01-26T04:46:33.455Z,-3.70
2019-01-26T04:49:03.802Z,-3.80
2019-01-26T04:51:34.251Z,-3.80
2019-01-26T04:54:04.684Z,-3.80
2019-01-26T04:56:35.143Z,-3.80
2019-01-26T04:59:05.662Z,-3.80
2019-01-26T05:01:36.120Z,-3.90
2019-01-26T05:04:06.519Z,-3.80
2019-01-26T05:06:36.912Z,-3.80
2019-01-26T05:09:09.224Z,-3.90
2019-01-26T05:11:39.609Z,-3.80
2019-01-26T05:14:09.943Z,-3.80
2019-01-26T05:16:40.296Z,-3.80
2019-01-26T05:19:11.723Z,-3.80
2019-01-26T05:21:42.071Z,-3.80
2019-01-26T05:24:12.438Z,-3.70
2019-01-26T05:26:42.892Z,-3.70
2019-01-26T05:29:13.267Z,-3.70
2019-01-26T05:31:43.613Z,-3.60
2019-01-26T05:34:13.948Z,-3.60
2019-01-26T05:36:44.291Z,-3.60
2019-01-26T05:39:14.631Z,-3.60
2019-01-26T05:41:45.004Z,-3.60
2019-01-26T05:44:16.863Z,-3.70
2019-01-26T05:46:47.380Z,-3.70
2019-01-26T05:49:36.751Z,-3.70
2019-01-26T05:52:07.168Z,-3.60
2019-01-26T05:54:37.583Z,-3.70
2019-01-26T05:57:07.962Z,-3.70
2019-01-26T05:59:38.304Z,-3.60
2019-01-26T06:02:08.721Z,-3.60
2019-01-26T06:04:39.135Z,-3.60
2019-01-26T06:07:09.515Z,-3.60
2019-01-26T06:09:39.861Z,-3.60
2019-01-26T06:12:10.384Z,-3.60
2019-01-26T06:14:40.724Z,-3.60
2019-01-26T06:17:11.132Z,-3.60
2019-01-26T06:19:41.472Z,-3.60
2019-01-26T06:22:11.843Z,-3.60
2019-01-26T06:24:42.200Z,-3.60
2019-01-26T06:27:12.552Z,-3.60
2019-01-26T06:32:12.499Z,-3.60
2019-01-26T06:37:12.587Z,-3.50
2019-01-26T06:39:42.955Z,-3.60
2019-01-26T06:42:13.803Z,-3.60
2019-01-26T06:44:44.415Z,-3.60
2019-01-26T06:47:16.112Z,-3.60
2019-01-26T06:49:46.683Z,-3.70
2019-01-26T06:55:02.717Z,-3.70
2019-01-26T06:57:37.389Z,-3.60
2019-01-26T07:00:16.919Z,-3.60
2019-01-26T07:02:47.781Z,-3.60
2019-01-26T07:05:28.411Z,-3.60
2019-01-26T07:07:59.294Z,-3.70
2019-01-26T07:10:29.886Z,-3.60
2019-01-26T07:13:00.276Z,-3.60
2019-01-26T07:15:32.199Z,-3.60
2019-01-26T07:18:09.166Z,-3.60
2019-01-26T07:20:38.588Z,-3.50
2019-01-26T07:23:16.238Z,-3.50
2019-01-26T07:25:51.864Z,-3.50
2019-01-26T07:28:23.976Z,-3.50
2019-01-26T07:30:54.765Z,-3.40
2019-01-26T07:33:32.952Z,-3.40
2019-01-26T07:36:03.799Z,-3.40
2019-01-26T07:38:34.975Z,-3.30
2019-01-26T07:43:35.109Z,-3.30
2019-01-26T07:46:06.156Z,-3.20
2019-01-26T07:51:06.770Z,-3.20
2019-01-26T07:53:37.223Z,-3.20
2019-01-26T07:56:07.859Z,-3.10
2019-01-26T07:58:38.482Z,-3.10
2019-01-26T08:01:09.035Z,-3.00
2019-01-26T08:03:40.081Z,-3.00
2019-01-26T08:06:11.087Z,-3.00
2019-01-26T08:08:41.470Z,-2.90
2019-01-26T08:11:11.879Z,-2.90
2019-01-26T08:13:42.597Z,-2.90
2019-01-26T08:16:15.418Z,-2.80
2019-01-26T08:21:15.559Z,-2.70
2019-01-26T08:23:45.941Z,-2.70
2019-01-26T08:26:16.283Z,-2.70
2019-01-26T08:31:16.295Z,-2.70
2019-01-26T08:33:46.674Z,-2.60
2019-01-26T08:36:17.039Z,-2.60
2019-01-26T08:41:18.712Z,-2.50
2019-01-26T08:43:49.077Z,-2.50
2019-01-26T08:48:49.168Z,-2.40
2019-01-26T08:53:49.231Z,-2.40
2019-01-26T08:58:49.229Z,-2.30
2019-01-26T09:04:01.111Z,-2.00
2019-01-26T09:06:35.045Z,-2.00
2019-01-26T09:09:09.903Z,-1.90
2019-01-26T09:11:40.253Z,-1.80
2019-01-26T09:14:10.707Z,-1.70
2019-01-26T09:16:41.059Z,-1.60
2019-01-26T09:21:41.102Z,-1.30
2019-01-26T09:24:12.554Z,-1.00
2019-01-26T09:26:42.891Z,-0.70
2019-01-26T09:29:13.271Z,-0.70
2019-01-26T09:31:44.080Z,-1.10
2019-01-26T09:34:14.455Z,-1.20
2019-01-26T09:39:15.866Z,-1.40
2019-01-26T09:41:46.375Z,-1.20
2019-01-26T09:44:16.736Z,-1.00
2019-01-26T09:46:47.616Z,-0.90
2019-01-26T09:49:18.076Z,-1.00
2019-01-26T09:51:50.979Z,-1.00
2019-01-26T09:54:21.335Z,-1.20
2019-01-26T09:56:51.703Z,-1.10
2019-01-26T09:59:23.950Z,-1.00
2019-01-26T10:01:56.575Z,-1.10
2019-01-26T10:04:27.548Z,-0.90
2019-01-26T10:06:57.904Z,-0.80
2019-01-26T10:09:28.307Z,-0.70
2019-01-26T10:11:58.650Z,-0.70
2019-01-26T10:14:29.339Z,-0.60
2019-01-26T10:16:59.687Z,-0.60
2019-01-26T10:19:30.148Z,-0.50
2019-01-26T10:22:00.507Z,-0.60
2019-01-26T10:24:30.851Z,-0.90
2019-01-26T10:29:30.910Z,-1.30
2019-01-26T10:32:01.543Z,-1.20
2019-01-26T10:34:33.735Z,-1.30
2019-01-26T10:37:08.931Z,-1.30
2019-01-26T10:39:39.499Z,-1.00
2019-01-26T10:42:30.403Z,-0.90
2019-01-26T10:45:00.819Z,-0.80
2019-01-26T10:50:01.235Z,-1.10
2019-01-26T10:52:31.655Z,-1.10
2019-01-26T10:57:32.707Z,-0.50
2019-01-26T11:00:03.687Z,-0.30
2019-01-26T11:02:37.540Z,0.00
2019-01-26T11:05:19.167Z,-0.10
2019-01-26T11:07:56.831Z,0.00
2019-01-26T11:17:57.912Z,-0.20
2019-01-26T11:20:28.904Z,-0.20
2019-01-26T11:22:59.671Z,-0.20
2019-01-26T11:28:00.024Z,0.10
2019-01-26T11:30:32.055Z,0.10
2019-01-26T11:33:02.487Z,0.20
2019-01-26T11:35:33.071Z,0.20
2019-01-26T11:43:06.547Z,0.30
2019-01-26T11:45:55.587Z,0.30
2019-01-26T11:48:29.363Z,0.30
2019-01-26T11:51:04.883Z,0.40
2019-01-26T11:53:35.436Z,0.40
2019-01-26T11:58:48.387Z,0.30
2019-01-26T12:01:36.343Z,0.30
2019-01-26T12:04:28.399Z,0.10
2019-01-26T12:07:10.758Z,0.10
2019-01-26T12:09:41.208Z,0.20
2019-01-26T12:12:11.560Z,0.20
2019-01-26T12:14:41.940Z,0.30
2019-01-26T12:17:12.491Z,0.20
2019-01-26T12:19:42.864Z,0.40
2019-01-26T12:24:43.364Z,0.40
2019-01-26T12:27:13.718Z,0.30
2019-01-26T12:29:44.223Z,0.30
2019-01-26T12:32:17.192Z,0.20
2019-01-26T12:34:47.768Z,0.20
2019-01-26T12:37:18.120Z,0.30
2019-01-26T12:39:48.455Z,0.30
2019-01-26T12:42:18.828Z,0.30
2019-01-26T12:44:49.334Z,0.50
2019-01-26T12:47:19.993Z,0.60
2019-01-26T12:49:50.499Z,0.70
2019-01-26T12:52:20.979Z,0.70
2019-01-26T12:54:54.029Z,0.70
2019-01-26T12:57:25.575Z,0.70
2019-01-26T13:04:55.524Z,0.40
2019-01-26T13:07:26.049Z,0.40
2019-01-26T13:14:56.041Z,0.50
2019-01-26T13:17:26.422Z,0.60
2019-01-26T13:19:56.818Z,0.60
2019-01-26T13:24:57.359Z,0.90
2019-01-26T13:27:27.776Z,0.90
2019-01-26T13:37:27.286Z,0.30
2019-01-26T13:42:27.384Z,0.40
2019-01-26T13:49:57.183Z,0.20
2019-01-26T13:54:57.579Z,0.10
2019-01-26T13:57:27.923Z,0.20
2019-01-26T13:59:58.432Z,0.20
2019-01-26T14:02:28.883Z,0.30
2019-01-26T14:07:29.053Z,0.30
2019-01-26T14:12:29.408Z,0.40
2019-01-26T14:17:29.859Z,0.30
2019-01-26T14:20:00.235Z,0.10
2019-01-26T14:25:01.957Z,0.10
2019-01-26T14:27:32.375Z,0.20
2019-01-26T14:30:02.720Z,0.20
2019-01-26T14:32:33.283Z,0.20
2019-01-26T14:35:04.043Z,0.20
2019-01-26T14:37:34.659Z,0.10
2019-01-26T14:40:05.374Z,0.10
2019-01-26T14:42:36.304Z,0.00
2019-01-26T14:45:08.192Z,-0.10
2019-01-26T14:47:38.678Z,-0.10
2019-01-26T14:50:11.683Z,-0.20
2019-01-26T14:52:42.048Z,-0.10
2019-01-26T14:55:17.103Z,-0.10
2019-01-26T14:57:48.075Z,-0.20
2019-01-26T15:00:27.541Z,-0.30
2019-01-26T15:02:58.075Z,-0.40
2019-01-26T15:05:29.487Z,-0.60
2019-01-26T15:08:00.607Z,-0.60
2019-01-26T15:10:30.968Z,-0.70
2019-01-26T15:15:30.996Z,-0.70
2019-01-26T15:18:01.651Z,-0.70
2019-01-26T15:20:34.623Z,-0.70
2019-01-26T15:23:05.903Z,-0.70
2019-01-26T15:25:36.631Z,-0.80
2019-01-26T15:28:08.246Z,-0.80
2019-01-26T15:30:41.175Z,-0.80
2019-01-26T15:33:11.956Z,-0.80
2019-01-26T15:38:12.680Z,-0.80
2019-01-26T15:40:43.095Z,-0.90
2019-01-26T15:43:13.536Z,-0.80
2019-01-26T15:45:46.488Z,-0.90
2019-01-26T15:48:16.840Z,-0.90
2019-01-26T15:50:47.188Z,-0.90
2019-01-26T15:53:17.572Z,-0.90
2019-01-26T15:55:47.915Z,-0.90
2019-01-26T15:58:18.771Z,-0.90
2019-01-26T16:00:49.191Z,-0.90
2019-01-26T16:03:20.917Z,-0.90
2019-01-26T16:05:51.598Z,-1.00
2019-01-26T16:08:21.958Z,-1.00
2019-01-26T16:13:22.003Z,-1.00
2019-01-26T16:15:54.188Z,-1.00
2019-01-26T16:18:24.835Z,-1.00
2019-01-26T16:20:55.635Z,-1.00
2019-01-26T16:23:26.083Z,-1.00
2019-01-26T16:25:56.555Z,-1.00
2019-01-26T16:30:56.689Z,-0.90
2019-01-26T16:33:27.380Z,-1.00
2019-01-26T16:35:59.424Z,-0.90
2019-01-26T16:38:30.347Z,-1.00
2019-01-26T16:41:01.029Z,-1.00
2019-01-26T16:43:31.859Z,-1.00
2019-01-26T16:46:02.567Z,-1.00
2019-01-26T16:48:33.279Z,-0.90
2019-01-26T16:51:03.841Z,-0.90
2019-01-26T16:53:34.364Z,-0.90
2019-01-26T16:56:06.413Z,-0.90
2019-01-26T16:58:37.191Z,-0.90
2019-01-26T17:01:08.103Z,-1.00
2019-01-26T17:03:38.731Z,-0.90
2019-01-26T17:08:39.294Z,-0.90
2019-01-26T17:11:11.468Z,-1.00
2019-01-26T17:13:42.280Z,-0.90
2019-01-26T17:16:12.631Z,-0.90
2019-01-26T17:18:46.241Z,-0.90
2019-01-26T17:43:42.488Z,-0.80
2019-01-26T17:46:12.921Z,-1.00
2019-01-26T17:48:43.389Z,-1.00
2019-01-26T17:51:13.895Z,-1.00
2019-01-26T17:53:44.610Z,-1.00
2019-01-26T17:58:44.987Z,-1.10
2019-01-26T18:01:16.243Z,-1.00
2019-01-26T18:03:46.775Z,-1.00
2019-01-26T18:06:17.295Z,-1.00
2019-01-26T18:08:47.650Z,-1.10
2019-01-26T18:11:18.206Z,-1.10
2019-01-26T18:13:48.652Z,-1.00
2019-01-26T18:18:48.703Z,-1.10
2019-01-26T18:21:19.039Z,-1.10
2019-01-26T18:23:49.444Z,-1.10
2019-01-26T18:26:19.791Z,-1.10
2019-01-26T18:28:50.144Z,-1.10
2019-01-26T18:31:20.487Z,-1.10
2019-01-26T18:38:51.755Z,-1.10
2019-01-26T18:43:51.811Z,-1.20
2019-01-26T18:46:22.229Z,-1.20
2019-01-26T18:48:52.646Z,-1.20
2019-01-26T18:51:22.986Z,-1.20
2019-01-26T18:53:53.336Z,-1.10
2019-01-26T18:56:24.148Z,-1.10
2019-01-26T18:58:54.539Z,-1.20
2019-01-26T19:04:30.523Z,-1.10
2019-01-26T19:07:00.939Z,-1.10
2019-01-26T19:09:31.467Z,-1.20
2019-01-26T19:14:31.887Z,-1.20
2019-01-26T19:17:02.428Z,-1.20
2019-01-26T19:19:32.863Z,-1.20
2019-01-26T19:24:32.888Z,-1.30
2019-01-26T19:29:33.943Z,-1.30
2019-01-26T19:32:05.482Z,-1.30
2019-01-26T19:34:36.225Z,-1.30
2019-01-26T19:39:37.980Z,-1.30
2019-01-26T19:42:08.395Z,-1.20
2019-01-26T19:44:39.040Z,-1.20
2019-01-26T19:47:09.543Z,-1.30
2019-01-26T19:49:39.891Z,-1.20
2019-01-26T19:52:10.371Z,-1.20
2019-01-26T19:54:40.811Z,-1.20
2019-01-26T19:59:40.801Z,-1.20
2019-01-26T20:02:11.239Z,-1.20
2019-01-26T20:04:42.047Z,-1.10
2019-01-26T20:07:12.460Z,-1.20
2019-01-26T20:09:42.923Z,-1.10
2019-01-26T20:12:13.407Z,-1.10
2019-01-26T20:14:44.094Z,-1.10
2019-01-26T20:19:44.339Z,-1.10
2019-01-26T20:22:18.241Z,-1.10
2019-01-26T20:24:49.927Z,-1.00
2019-01-26T20:29:51.011Z,-1.00
2019-01-26T20:32:21.367Z,-1.00
2019-01-26T20:34:51.750Z,-1.00
2019-01-26T20:37:22.185Z,-1.00
2019-01-26T20:39:52.635Z,-1.00
2019-01-26T20:42:23.063Z,-1.00
2019-01-26T20:44:53.602Z,-1.00
2019-01-26T20:47:24.188Z,-1.00
2019-01-26T20:49:54.729Z,-1.00
2019-01-26T20:52:25.073Z,-1.00
2019-01-26T20:57:25.123Z,-1.00
2019-01-26T20:59:55.471Z,-1.00
2019-01-26T21:04:55.892Z,-1.00
2019-01-26T21:07:26.275Z,-1.00
2019-01-26T21:09:56.667Z,-1.00
2019-01-26T21:14:56.703Z,-1.00
2019-01-26T21:17:27.157Z,-1.00
2019-01-26T21:19:58.896Z,-1.00
2019-01-26T21:24:59.396Z,-1.00
2019-01-26T21:32:30.903Z,-1.00
2019-01-26T21:40:00.463Z,-1.00
2019-01-26T21:42:31.545Z,-1.00
2019-01-26T21:45:03.120Z,-1.00
2019-01-26T21:50:04.787Z,-1.00
2019-01-26T21:52:40.960Z,-0.90
2019-01-26T21:55:10.099Z,-1.00
2019-01-26T21:57:40.443Z,-1.00
2019-01-26T22:00:14.447Z,-1.00
2019-01-26T22:02:44.788Z,-1.00
2019-01-26T22:07:44.835Z,-1.00
2019-01-26T22:10:16.864Z,-1.00
2019-01-26T22:12:47.207Z,-0.90
2019-01-26T22:15:19.551Z,-0.90
2019-01-26T22:17:49.910Z,-0.90
2019-01-26T22:22:51.034Z,-0.90
2019-01-26T22:30:26.309Z,-0.90
2019-01-26T22:32:56.659Z,-0.90
2019-01-26T22:35:27.010Z,-0.90
2019-01-26T22:37:57.559Z,-0.90
2019-01-26T22:42:58.655Z,-0.90
2019-01-26T22:45:28.998Z,-0.90
2019-01-26T22:47:59.419Z,-0.90
2019-01-26T22:50:30.247Z,-0.90
2019-01-26T22:53:00.707Z,-0.90
2019-01-26T22:55:32.120Z,-0.90
2019-01-26T22:58:02.511Z,-0.90
2019-01-26T23:01:07.423Z,-0.90
2019-01-26T23:04:32.179Z,-0.80
2019-01-26T23:08:01.643Z,-0.80
2019-01-26T23:11:08.811Z,-0.80
2019-01-26T23:14:03.563Z,-0.80
2019-01-26T23:17:13.439Z,-0.80
2019-01-26T23:20:36.880Z,-0.80
2019-01-26T23:23:37.163Z,-0.70
2019-01-26T23:26:51.162Z,-0.70
2019-01-26T23:30:18.914Z,-0.70
2019-01-26T23:32:49.267Z,-0.70
2019-01-26T23:35:19.647Z,-0.70
2019-01-26T23:37:49.998Z,-0.70
2019-01-26T23:40:20.463Z,-0.60
2019-01-26T23:42:50.811Z,-0.60
2019-01-26T23:45:21.697Z,-0.60
2019-01-26T23:47:52.039Z,-0.60
2019-01-26T23:50:22.417Z,-0.60
2019-01-26T23:52:52.756Z,-0.60
2019-01-26T23:55:23.103Z,-0.60
2019-01-26T23:57:53.451Z,-0.60
